sensor_id;sensor_type;location;lat;lon;timestamp;P1;durP1;ratioP1;P2;durP2;ratioP2
25023;SDS011;13033;50.936;5.334;2023-08-31T00:00:09;2.92;;;1.75;;
25023;SDS011;13033;50.936;5.334;2023-08-31T00:02:36;2.55;;;1.70;;
25023;SDS011;13033;50.936;5.334;2023-08-31T00:05:04;3.40;;;1.40;;
25023;SDS011;13033;50.936;5.334;2023-08-31T00:07:30;1.70;;;1.25;;
25023;SDS011;13033;50.936;5.334;2023-08-31T00:09:57;2.95;;;1.60;;
25023;SDS011;13033;50.936;5.334;2023-08-31T00:12:23;2.42;;;1.45;;
25023;SDS011;13033;50.936;5.334;2023-08-31T00:14:49;2.83;;;1.40;;
25023;SDS011;13033;50.936;5.334;2023-08-31T00:17:15;1.55;;;1.23;;
25023;SDS011;13033;50.936;5.334;2023-08-31T00:19:42;3.75;;;1.50;;
25023;SDS011;13033;50.936;5.334;2023-08-31T00:22:08;2.30;;;1.33;;
25023;SDS011;13033;50.936;5.334;2023-08-31T00:24:34;1.77;;;1.30;;
25023;SDS011;13033;50.936;5.334;2023-08-31T00:27:01;2.35;;;1.33;;
25023;SDS011;13033;50.936;5.334;2023-08-31T00:29:31;3.72;;;1.55;;
25023;SDS011;13033;50.936;5.334;2023-08-31T00:31:57;2.90;;;1.45;;
25023;SDS011;13033;50.936;5.334;2023-08-31T00:34:23;1.75;;;1.30;;
25023;SDS011;13033;50.936;5.334;2023-08-31T00:36:48;3.53;;;1.42;;
25023;SDS011;13033;50.936;5.334;2023-08-31T00:39:14;2.00;;;1.70;;
25023;SDS011;13033;50.936;5.334;2023-08-31T00:41:42;3.83;;;1.35;;
25023;SDS011;13033;50.936;5.334;2023-08-31T00:44:10;3.33;;;1.60;;
25023;SDS011;13033;50.936;5.334;2023-08-31T00:46:36;2.45;;;1.40;;
25023;SDS011;13033;50.936;5.334;2023-08-31T00:49:02;4.22;;;1.85;;
25023;SDS011;13033;50.936;5.334;2023-08-31T00:51:31;2.75;;;1.63;;
25023;SDS011;13033;50.936;5.334;2023-08-31T00:53:57;5.28;;;2.33;;
25023;SDS011;13033;50.936;5.334;2023-08-31T00:56:24;4.25;;;1.80;;
25023;SDS011;13033;50.936;5.334;2023-08-31T00:58:51;4.05;;;2.13;;
25023;SDS011;13033;50.936;5.334;2023-08-31T01:10:04;5.68;;;1.85;;
25023;SDS011;13033;50.936;5.334;2023-08-31T01:13:11;2.72;;;2.13;;
25023;SDS011;13033;50.936;5.334;2023-08-31T01:15:41;3.08;;;1.77;;
25023;SDS011;13033;50.936;5.334;2023-08-31T01:18:09;3.40;;;1.95;;
25023;SDS011;13033;50.936;5.334;2023-08-31T01:23:16;3.38;;;2.00;;
25023;SDS011;13033;50.936;5.334;2023-08-31T01:25:44;3.53;;;2.15;;
25023;SDS011;13033;50.936;5.334;2023-08-31T01:28:13;3.40;;;2.30;;
25023;SDS011;13033;50.936;5.334;2023-08-31T01:30:39;3.17;;;2.25;;
25023;SDS011;13033;50.936;5.334;2023-08-31T01:33:06;3.60;;;2.38;;
25023;SDS011;13033;50.936;5.334;2023-08-31T01:35:38;3.13;;;2.35;;
25023;SDS011;13033;50.936;5.334;2023-08-31T01:38:08;4.05;;;2.20;;
25023;SDS011;13033;50.936;5.334;2023-08-31T01:43:04;4.78;;;2.50;;
25023;SDS011;13033;50.936;5.334;2023-08-31T01:45:33;3.90;;;2.60;;
25023;SDS011;13033;50.936;5.334;2023-08-31T01:48:00;5.00;;;2.78;;
25023;SDS011;13033;50.936;5.334;2023-08-31T01:50:26;3.45;;;2.60;;
25023;SDS011;13033;50.936;5.334;2023-08-31T01:52:52;4.22;;;2.80;;
25023;SDS011;13033;50.936;5.334;2023-08-31T01:55:21;4.03;;;2.47;;
25023;SDS011;13033;50.936;5.334;2023-08-31T01:57:47;3.95;;;2.47;;
25023;SDS011;13033;50.936;5.334;2023-08-31T02:00:13;3.80;;;2.47;;
25023;SDS011;13033;50.936;5.334;2023-08-31T02:02:41;3.58;;;2.75;;
25023;SDS011;13033;50.936;5.334;2023-08-31T02:05:07;6.85;;;3.33;;
25023;SDS011;13033;50.936;5.334;2023-08-31T02:07:33;4.18;;;3.00;;
25023;SDS011;13033;50.936;5.334;2023-08-31T02:09:59;4.38;;;2.53;;
25023;SDS011;13033;50.936;5.334;2023-08-31T02:12:25;5.05;;;3.53;;
25023;SDS011;13033;50.936;5.334;2023-08-31T02:14:50;6.72;;;3.47;;
25023;SDS011;13033;50.936;5.334;2023-08-31T02:17:16;3.88;;;3.13;;
25023;SDS011;13033;50.936;5.334;2023-08-31T02:19:42;5.30;;;3.67;;
25023;SDS011;13033;50.936;5.334;2023-08-31T02:22:07;5.18;;;3.47;;
25023;SDS011;13033;50.936;5.334;2023-08-31T02:24:33;6.47;;;3.88;;
25023;SDS011;13033;50.936;5.334;2023-08-31T02:26:59;6.47;;;3.97;;
25023;SDS011;13033;50.936;5.334;2023-08-31T02:29:25;8.35;;;3.40;;
25023;SDS011;13033;50.936;5.334;2023-08-31T02:31:50;8.88;;;4.25;;
25023;SDS011;13033;50.936;5.334;2023-08-31T02:34:16;7.28;;;4.15;;
25023;SDS011;13033;50.936;5.334;2023-08-31T02:36:42;8.15;;;4.60;;
25023;SDS011;13033;50.936;5.334;2023-08-31T02:39:07;5.72;;;4.28;;
25023;SDS011;13033;50.936;5.334;2023-08-31T02:41:33;5.68;;;4.32;;
25023;SDS011;13033;50.936;5.334;2023-08-31T02:43:59;5.88;;;4.50;;
25023;SDS011;13033;50.936;5.334;2023-08-31T02:46:25;8.98;;;4.90;;
25023;SDS011;13033;50.936;5.334;2023-08-31T02:48:50;7.32;;;4.80;;
25023;SDS011;13033;50.936;5.334;2023-08-31T02:51:16;7.85;;;4.93;;
25023;SDS011;13033;50.936;5.334;2023-08-31T02:53:42;7.35;;;5.18;;
25023;SDS011;13033;50.936;5.334;2023-08-31T02:56:08;6.53;;;5.20;;
25023;SDS011;13033;50.936;5.334;2023-08-31T02:58:33;9.00;;;5.22;;
25023;SDS011;13033;50.936;5.334;2023-08-31T03:01:06;8.05;;;4.82;;
25023;SDS011;13033;50.936;5.334;2023-08-31T03:03:33;8.90;;;5.53;;
25023;SDS011;13033;50.936;5.334;2023-08-31T03:06:00;7.22;;;5.03;;
25023;SDS011;13033;50.936;5.334;2023-08-31T03:08:25;9.88;;;5.50;;
25023;SDS011;13033;50.936;5.334;2023-08-31T03:10:51;9.70;;;5.50;;
25023;SDS011;13033;50.936;5.334;2023-08-31T03:13:18;9.60;;;4.93;;
25023;SDS011;13033;50.936;5.334;2023-08-31T03:15:43;9.10;;;5.60;;
25023;SDS011;13033;50.936;5.334;2023-08-31T03:18:09;8.57;;;5.82;;
25023;SDS011;13033;50.936;5.334;2023-08-31T03:20:35;6.97;;;5.72;;
25023;SDS011;13033;50.936;5.334;2023-08-31T03:23:00;9.23;;;5.68;;
25023;SDS011;13033;50.936;5.334;2023-08-31T03:25:27;9.10;;;5.90;;
25023;SDS011;13033;50.936;5.334;2023-08-31T03:27:53;9.23;;;5.78;;
25023;SDS011;13033;50.936;5.334;2023-08-31T03:30:18;11.60;;;5.63;;
25023;SDS011;13033;50.936;5.334;2023-08-31T03:32:44;11.77;;;6.22;;
25023;SDS011;13033;50.936;5.334;2023-08-31T03:35:10;9.65;;;6.13;;
25023;SDS011;13033;50.936;5.334;2023-08-31T03:37:36;8.10;;;5.30;;
25023;SDS011;13033;50.936;5.334;2023-08-31T03:40:02;9.32;;;6.18;;
25023;SDS011;13033;50.936;5.334;2023-08-31T03:42:31;7.07;;;5.60;;
25023;SDS011;13033;50.936;5.334;2023-08-31T03:44:56;7.30;;;5.80;;
25023;SDS011;13033;50.936;5.334;2023-08-31T03:47:22;7.90;;;5.20;;
25023;SDS011;13033;50.936;5.334;2023-08-31T03:49:48;11.48;;;5.72;;
25023;SDS011;13033;50.936;5.334;2023-08-31T03:52:13;9.38;;;5.55;;
25023;SDS011;13033;50.936;5.334;2023-08-31T03:54:39;8.52;;;5.13;;
25023;SDS011;13033;50.936;5.334;2023-08-31T03:57:04;8.23;;;5.15;;
25023;SDS011;13033;50.936;5.334;2023-08-31T03:59:30;10.55;;;5.10;;
25023;SDS011;13033;50.936;5.334;2023-08-31T04:01:56;8.88;;;5.35;;
25023;SDS011;13033;50.936;5.334;2023-08-31T04:04:21;9.80;;;5.20;;
25023;SDS011;13033;50.936;5.334;2023-08-31T04:06:47;10.82;;;5.75;;
25023;SDS011;13033;50.936;5.334;2023-08-31T04:09:13;9.65;;;5.72;;
25023;SDS011;13033;50.936;5.334;2023-08-31T04:11:38;10.52;;;5.13;;
25023;SDS011;13033;50.936;5.334;2023-08-31T04:14:04;9.25;;;5.57;;
25023;SDS011;13033;50.936;5.334;2023-08-31T04:16:31;8.30;;;6.10;;
25023;SDS011;13033;50.936;5.334;2023-08-31T04:18:57;11.00;;;5.82;;
25023;SDS011;13033;50.936;5.334;2023-08-31T04:21:23;12.02;;;5.78;;
25023;SDS011;13033;50.936;5.334;2023-08-31T04:23:48;10.27;;;6.28;;
25023;SDS011;13033;50.936;5.334;2023-08-31T04:26:14;11.32;;;5.75;;
25023;SDS011;13033;50.936;5.334;2023-08-31T04:28:42;11.73;;;5.80;;
25023;SDS011;13033;50.936;5.334;2023-08-31T04:31:08;8.93;;;5.20;;
25023;SDS011;13033;50.936;5.334;2023-08-31T04:33:34;9.45;;;4.90;;
25023;SDS011;13033;50.936;5.334;2023-08-31T04:36:01;8.52;;;5.18;;
25023;SDS011;13033;50.936;5.334;2023-08-31T04:38:28;12.63;;;5.78;;
25023;SDS011;13033;50.936;5.334;2023-08-31T04:40:54;10.15;;;5.43;;
25023;SDS011;13033;50.936;5.334;2023-08-31T04:43:23;8.63;;;5.47;;
25023;SDS011;13033;50.936;5.334;2023-08-31T04:45:51;11.02;;;5.80;;
25023;SDS011;13033;50.936;5.334;2023-08-31T04:48:16;11.77;;;6.10;;
25023;SDS011;13033;50.936;5.334;2023-08-31T04:50:42;9.38;;;5.80;;
25023;SDS011;13033;50.936;5.334;2023-08-31T04:53:08;12.13;;;5.60;;
25023;SDS011;13033;50.936;5.334;2023-08-31T04:55:33;13.52;;;6.07;;
25023;SDS011;13033;50.936;5.334;2023-08-31T04:57:59;10.85;;;5.50;;
25023;SDS011;13033;50.936;5.334;2023-08-31T05:00:26;11.65;;;5.63;;
25023;SDS011;13033;50.936;5.334;2023-08-31T05:02:52;11.35;;;5.47;;
25023;SDS011;13033;50.936;5.334;2023-08-31T05:05:17;9.85;;;5.20;;
25023;SDS011;13033;50.936;5.334;2023-08-31T05:07:43;11.23;;;6.00;;
25023;SDS011;13033;50.936;5.334;2023-08-31T05:10:09;7.03;;;5.25;;
25023;SDS011;13033;50.936;5.334;2023-08-31T05:12:35;10.07;;;4.72;;
25023;SDS011;13033;50.936;5.334;2023-08-31T05:15:01;10.68;;;5.38;;
25023;SDS011;13033;50.936;5.334;2023-08-31T05:17:27;9.30;;;4.78;;
25023;SDS011;13033;50.936;5.334;2023-08-31T05:19:53;9.13;;;5.00;;
25023;SDS011;13033;50.936;5.334;2023-08-31T05:22:19;9.38;;;5.30;;
25023;SDS011;13033;50.936;5.334;2023-08-31T05:24:44;10.00;;;4.75;;
25023;SDS011;13033;50.936;5.334;2023-08-31T05:27:10;11.05;;;5.30;;
25023;SDS011;13033;50.936;5.334;2023-08-31T05:29:36;8.93;;;5.15;;
25023;SDS011;13033;50.936;5.334;2023-08-31T05:32:01;11.20;;;5.22;;
25023;SDS011;13033;50.936;5.334;2023-08-31T05:34:27;8.32;;;4.50;;
25023;SDS011;13033;50.936;5.334;2023-08-31T05:36:53;11.65;;;4.57;;
25023;SDS011;13033;50.936;5.334;2023-08-31T05:39:19;9.23;;;4.88;;
25023;SDS011;13033;50.936;5.334;2023-08-31T05:41:44;12.27;;;5.32;;
25023;SDS011;13033;50.936;5.334;2023-08-31T05:44:10;8.35;;;4.30;;
25023;SDS011;13033;50.936;5.334;2023-08-31T05:46:36;8.98;;;4.15;;
25023;SDS011;13033;50.936;5.334;2023-08-31T05:49:03;7.45;;;4.18;;
25023;SDS011;13033;50.936;5.334;2023-08-31T05:51:29;10.95;;;4.30;;
25023;SDS011;13033;50.936;5.334;2023-08-31T05:53:54;11.13;;;4.75;;
25023;SDS011;13033;50.936;5.334;2023-08-31T05:56:20;6.80;;;4.25;;
25023;SDS011;13033;50.936;5.334;2023-08-31T05:58:46;9.77;;;3.95;;
25023;SDS011;13033;50.936;5.334;2023-08-31T06:01:12;8.35;;;3.63;;
25023;SDS011;13033;50.936;5.334;2023-08-31T06:03:38;8.43;;;3.80;;
25023;SDS011;13033;50.936;5.334;2023-08-31T06:06:04;9.93;;;4.03;;
25023;SDS011;13033;50.936;5.334;2023-08-31T06:08:29;6.68;;;3.28;;
25023;SDS011;13033;50.936;5.334;2023-08-31T06:10:55;7.20;;;3.55;;
25023;SDS011;13033;50.936;5.334;2023-08-31T06:13:21;10.05;;;3.70;;
25023;SDS011;13033;50.936;5.334;2023-08-31T06:15:47;8.02;;;3.42;;
25023;SDS011;13033;50.936;5.334;2023-08-31T06:18:13;8.35;;;3.70;;
25023;SDS011;13033;50.936;5.334;2023-08-31T06:20:39;8.75;;;3.33;;
25023;SDS011;13033;50.936;5.334;2023-08-31T06:23:04;6.95;;;3.20;;
25023;SDS011;13033;50.936;5.334;2023-08-31T06:25:30;6.65;;;3.13;;
25023;SDS011;13033;50.936;5.334;2023-08-31T06:27:56;9.80;;;3.22;;
25023;SDS011;13033;50.936;5.334;2023-08-31T06:30:22;7.32;;;3.85;;
25023;SDS011;13033;50.936;5.334;2023-08-31T06:32:48;9.23;;;3.10;;
25023;SDS011;13033;50.936;5.334;2023-08-31T06:35:15;7.53;;;3.40;;
25023;SDS011;13033;50.936;5.334;2023-08-31T06:37:41;8.60;;;3.33;;
25023;SDS011;13033;50.936;5.334;2023-08-31T06:40:07;7.22;;;3.38;;
25023;SDS011;13033;50.936;5.334;2023-08-31T06:42:35;11.20;;;4.00;;
25023;SDS011;13033;50.936;5.334;2023-08-31T06:45:04;12.57;;;3.90;;
25023;SDS011;13033;50.936;5.334;2023-08-31T06:47:31;6.47;;;3.88;;
25023;SDS011;13033;50.936;5.334;2023-08-31T06:49:57;7.55;;;3.75;;
25023;SDS011;13033;50.936;5.334;2023-08-31T06:52:23;7.38;;;3.63;;
25023;SDS011;13033;50.936;5.334;2023-08-31T06:54:49;11.00;;;4.30;;
25023;SDS011;13033;50.936;5.334;2023-08-31T06:57:15;11.38;;;4.05;;
25023;SDS011;13033;50.936;5.334;2023-08-31T06:59:40;16.08;;;5.55;;
25023;SDS011;13033;50.936;5.334;2023-08-31T07:02:06;7.70;;;3.38;;
25023;SDS011;13033;50.936;5.334;2023-08-31T07:04:32;8.32;;;3.80;;
25023;SDS011;13033;50.936;5.334;2023-08-31T07:06:57;7.53;;;3.85;;
25023;SDS011;13033;50.936;5.334;2023-08-31T07:09:23;7.80;;;3.22;;
25023;SDS011;13033;50.936;5.334;2023-08-31T07:11:49;9.63;;;3.60;;
25023;SDS011;13033;50.936;5.334;2023-08-31T07:14:14;10.63;;;3.58;;
25023;SDS011;13033;50.936;5.334;2023-08-31T07:16:40;13.02;;;3.85;;
25023;SDS011;13033;50.936;5.334;2023-08-31T07:19:06;9.07;;;3.88;;
25023;SDS011;13033;50.936;5.334;2023-08-31T07:21:31;10.63;;;3.85;;
25023;SDS011;13033;50.936;5.334;2023-08-31T07:23:57;13.32;;;4.18;;
25023;SDS011;13033;50.936;5.334;2023-08-31T07:26:22;12.80;;;4.05;;
25023;SDS011;13033;50.936;5.334;2023-08-31T07:28:48;11.43;;;4.00;;
25023;SDS011;13033;50.936;5.334;2023-08-31T07:31:14;9.50;;;3.67;;
25023;SDS011;13033;50.936;5.334;2023-08-31T07:33:41;13.82;;;4.50;;
25023;SDS011;13033;50.936;5.334;2023-08-31T07:36:07;15.45;;;3.95;;
25023;SDS011;13033;50.936;5.334;2023-08-31T07:38:33;10.82;;;4.20;;
25023;SDS011;13033;50.936;5.334;2023-08-31T07:40:59;9.95;;;3.90;;
25023;SDS011;13033;50.936;5.334;2023-08-31T07:43:25;13.75;;;3.67;;
25023;SDS011;13033;50.936;5.334;2023-08-31T07:45:52;14.82;;;4.07;;
25023;SDS011;13033;50.936;5.334;2023-08-31T07:48:18;13.43;;;4.28;;
25023;SDS011;13033;50.936;5.334;2023-08-31T07:50:44;12.57;;;3.80;;
25023;SDS011;13033;50.936;5.334;2023-08-31T07:53:10;8.30;;;3.90;;
25023;SDS011;13033;50.936;5.334;2023-08-31T07:55:37;11.00;;;4.32;;
25023;SDS011;13033;50.936;5.334;2023-08-31T07:58:02;10.13;;;3.80;;
25023;SDS011;13033;50.936;5.334;2023-08-31T08:00:28;14.27;;;4.35;;
25023;SDS011;13033;50.936;5.334;2023-08-31T08:02:54;11.15;;;4.43;;
25023;SDS011;13033;50.936;5.334;2023-08-31T08:05:19;14.88;;;4.25;;
25023;SDS011;13033;50.936;5.334;2023-08-31T08:07:45;9.95;;;3.70;;
25023;SDS011;13033;50.936;5.334;2023-08-31T08:10:11;13.02;;;4.25;;
25023;SDS011;13033;50.936;5.334;2023-08-31T08:12:38;13.50;;;4.47;;
25023;SDS011;13033;50.936;5.334;2023-08-31T08:15:05;9.05;;;4.00;;
25023;SDS011;13033;50.936;5.334;2023-08-31T08:17:35;14.40;;;4.00;;
25023;SDS011;13033;50.936;5.334;2023-08-31T08:20:00;13.50;;;4.40;;
25023;SDS011;13033;50.936;5.334;2023-08-31T08:22:26;10.45;;;4.57;;
25023;SDS011;13033;50.936;5.334;2023-08-31T08:24:52;10.85;;;4.18;;
25023;SDS011;13033;50.936;5.334;2023-08-31T08:27:18;15.25;;;4.32;;
25023;SDS011;13033;50.936;5.334;2023-08-31T08:29:44;17.13;;;4.82;;
25023;SDS011;13033;50.936;5.334;2023-08-31T08:32:10;11.52;;;4.43;;
25023;SDS011;13033;50.936;5.334;2023-08-31T08:34:36;11.25;;;4.45;;
25023;SDS011;13033;50.936;5.334;2023-08-31T08:37:02;10.70;;;4.10;;
25023;SDS011;13033;50.936;5.334;2023-08-31T08:39:28;12.63;;;4.35;;
25023;SDS011;13033;50.936;5.334;2023-08-31T08:41:55;9.98;;;4.80;;
25023;SDS011;13033;50.936;5.334;2023-08-31T08:44:26;15.02;;;5.00;;
25023;SDS011;13033;50.936;5.334;2023-08-31T08:46:58;12.38;;;4.70;;
25023;SDS011;13033;50.936;5.334;2023-08-31T08:49:25;15.52;;;4.22;;
25023;SDS011;13033;50.936;5.334;2023-08-31T08:51:51;10.13;;;4.10;;
25023;SDS011;13033;50.936;5.334;2023-08-31T08:54:18;10.95;;;4.40;;
25023;SDS011;13033;50.936;5.334;2023-08-31T08:56:45;11.07;;;4.07;;
25023;SDS011;13033;50.936;5.334;2023-08-31T08:59:10;7.20;;;4.45;;
25023;SDS011;13033;50.936;5.334;2023-08-31T09:01:43;15.27;;;4.80;;
25023;SDS011;13033;50.936;5.334;2023-08-31T09:04:09;11.70;;;4.85;;
25023;SDS011;13033;50.936;5.334;2023-08-31T09:06:35;9.80;;;4.65;;
25023;SDS011;13033;50.936;5.334;2023-08-31T09:09:01;13.25;;;4.47;;
25023;SDS011;13033;50.936;5.334;2023-08-31T09:11:26;9.00;;;4.18;;
25023;SDS011;13033;50.936;5.334;2023-08-31T09:13:52;10.52;;;4.63;;
25023;SDS011;13033;50.936;5.334;2023-08-31T09:16:28;15.80;;;4.53;;
25023;SDS011;13033;50.936;5.334;2023-08-31T09:18:58;12.50;;;4.57;;
25023;SDS011;13033;50.936;5.334;2023-08-31T09:21:36;13.18;;;4.53;;
25023;SDS011;13033;50.936;5.334;2023-08-31T09:24:04;13.00;;;4.60;;
25023;SDS011;13033;50.936;5.334;2023-08-31T09:26:54;9.00;;;3.95;;
25023;SDS011;13033;50.936;5.334;2023-08-31T09:29:20;11.43;;;4.10;;
25023;SDS011;13033;50.936;5.334;2023-08-31T09:31:46;10.25;;;4.10;;
25023;SDS011;13033;50.936;5.334;2023-08-31T09:34:13;12.75;;;4.45;;
25023;SDS011;13033;50.936;5.334;2023-08-31T09:36:39;7.65;;;4.22;;
25023;SDS011;13033;50.936;5.334;2023-08-31T09:39:05;9.90;;;4.45;;
25023;SDS011;13033;50.936;5.334;2023-08-31T09:41:31;11.50;;;4.43;;
25023;SDS011;13033;50.936;5.334;2023-08-31T09:44:15;12.60;;;4.57;;
25023;SDS011;13033;50.936;5.334;2023-08-31T09:46:42;9.65;;;4.53;;
25023;SDS011;13033;50.936;5.334;2023-08-31T09:49:08;11.82;;;3.72;;
25023;SDS011;13033;50.936;5.334;2023-08-31T09:51:35;13.48;;;4.95;;
25023;SDS011;13033;50.936;5.334;2023-08-31T09:54:07;10.50;;;4.50;;
25023;SDS011;13033;50.936;5.334;2023-08-31T09:56:34;9.05;;;4.18;;
25023;SDS011;13033;50.936;5.334;2023-08-31T09:59:01;12.43;;;4.50;;
25023;SDS011;13033;50.936;5.334;2023-08-31T10:01:28;11.27;;;4.35;;
25023;SDS011;13033;50.936;5.334;2023-08-31T10:03:53;6.40;;;3.63;;
25023;SDS011;13033;50.936;5.334;2023-08-31T10:06:20;9.55;;;4.40;;
25023;SDS011;13033;50.936;5.334;2023-08-31T10:08:47;13.88;;;4.60;;
25023;SDS011;13033;50.936;5.334;2023-08-31T10:11:13;10.07;;;4.25;;
25023;SDS011;13033;50.936;5.334;2023-08-31T10:13:41;10.00;;;4.20;;
25023;SDS011;13033;50.936;5.334;2023-08-31T10:16:08;10.25;;;4.40;;
25023;SDS011;13033;50.936;5.334;2023-08-31T10:18:35;15.00;;;3.72;;
25023;SDS011;13033;50.936;5.334;2023-08-31T10:21:03;8.98;;;3.63;;
25023;SDS011;13033;50.936;5.334;2023-08-31T10:23:29;8.63;;;3.65;;
25023;SDS011;13033;50.936;5.334;2023-08-31T10:28:21;9.25;;;3.70;;
25023;SDS011;13033;50.936;5.334;2023-08-31T10:31:04;6.68;;;3.75;;
25023;SDS011;13033;50.936;5.334;2023-08-31T10:33:34;8.77;;;3.72;;
25023;SDS011;13033;50.936;5.334;2023-08-31T10:38:34;8.65;;;3.10;;
25023;SDS011;13033;50.936;5.334;2023-08-31T10:43:50;6.13;;;3.15;;
25023;SDS011;13033;50.936;5.334;2023-08-31T10:46:30;8.70;;;3.47;;
25023;SDS011;13033;50.936;5.334;2023-08-31T10:49:00;7.68;;;3.00;;
25023;SDS011;13033;50.936;5.334;2023-08-31T10:51:40;7.45;;;2.72;;
25023;SDS011;13033;50.936;5.334;2023-08-31T10:59:43;8.95;;;2.72;;
25023;SDS011;13033;50.936;5.334;2023-08-31T11:02:28;6.53;;;2.60;;
25023;SDS011;13033;50.936;5.334;2023-08-31T11:07:33;7.82;;;2.72;;
25023;SDS011;13033;50.936;5.334;2023-08-31T11:10:10;5.97;;;2.58;;
25023;SDS011;13033;50.936;5.334;2023-08-31T11:12:36;6.43;;;2.42;;
25023;SDS011;13033;50.936;5.334;2023-08-31T11:15:03;7.05;;;2.33;;
25023;SDS011;13033;50.936;5.334;2023-08-31T11:17:29;5.63;;;2.20;;
25023;SDS011;13033;50.936;5.334;2023-08-31T11:19:57;3.92;;;2.00;;
25023;SDS011;13033;50.936;5.334;2023-08-31T11:22:23;5.28;;;2.20;;
25023;SDS011;13033;50.936;5.334;2023-08-31T11:24:49;9.32;;;3.08;;
25023;SDS011;13033;50.936;5.334;2023-08-31T11:27:15;5.13;;;2.50;;
25023;SDS011;13033;50.936;5.334;2023-08-31T11:29:44;6.57;;;2.42;;
25023;SDS011;13033;50.936;5.334;2023-08-31T11:32:10;4.75;;;1.95;;
25023;SDS011;13033;50.936;5.334;2023-08-31T11:34:39;6.57;;;1.92;;
25023;SDS011;13033;50.936;5.334;2023-08-31T11:37:09;6.57;;;2.20;;
25023;SDS011;13033;50.936;5.334;2023-08-31T11:39:40;9.00;;;2.50;;
25023;SDS011;13033;50.936;5.334;2023-08-31T11:42:07;5.28;;;2.20;;
25023;SDS011;13033;50.936;5.334;2023-08-31T11:44:33;5.53;;;2.08;;
25023;SDS011;13033;50.936;5.334;2023-08-31T11:46:59;5.65;;;2.10;;
25023;SDS011;13033;50.936;5.334;2023-08-31T11:49:26;9.25;;;2.88;;
25023;SDS011;13033;50.936;5.334;2023-08-31T11:51:53;7.70;;;2.58;;
25023;SDS011;13033;50.936;5.334;2023-08-31T11:54:19;5.22;;;2.53;;
25023;SDS011;13033;50.936;5.334;2023-08-31T11:56:45;5.53;;;2.42;;
25023;SDS011;13033;50.936;5.334;2023-08-31T11:59:16;8.00;;;2.45;;
25023;SDS011;13033;50.936;5.334;2023-08-31T12:01:43;7.80;;;2.67;;
25023;SDS011;13033;50.936;5.334;2023-08-31T12:04:14;5.90;;;2.60;;
25023;SDS011;13033;50.936;5.334;2023-08-31T12:06:41;5.75;;;2.20;;
25023;SDS011;13033;50.936;5.334;2023-08-31T12:09:12;5.90;;;1.95;;
25023;SDS011;13033;50.936;5.334;2023-08-31T12:11:37;6.50;;;2.83;;
25023;SDS011;13033;50.936;5.334;2023-08-31T12:14:04;5.53;;;2.22;;
25023;SDS011;13033;50.936;5.334;2023-08-31T12:16:46;4.65;;;2.45;;
25023;SDS011;13033;50.936;5.334;2023-08-31T12:19:12;5.28;;;2.00;;
25023;SDS011;13033;50.936;5.334;2023-08-31T12:21:38;6.75;;;2.25;;
25023;SDS011;13033;50.936;5.334;2023-08-31T12:24:05;5.70;;;2.33;;
25023;SDS011;13033;50.936;5.334;2023-08-31T12:26:31;5.10;;;2.10;;
25023;SDS011;13033;50.936;5.334;2023-08-31T12:28:57;4.05;;;2.03;;
25023;SDS011;13033;50.936;5.334;2023-08-31T12:31:22;7.45;;;2.78;;
25023;SDS011;13033;50.936;5.334;2023-08-31T12:33:49;9.68;;;2.70;;
25023;SDS011;13033;50.936;5.334;2023-08-31T12:36:15;9.90;;;2.60;;
25023;SDS011;13033;50.936;5.334;2023-08-31T12:38:41;8.23;;;2.22;;
25023;SDS011;13033;50.936;5.334;2023-08-31T12:41:06;4.80;;;2.47;;
25023;SDS011;13033;50.936;5.334;2023-08-31T12:43:33;6.38;;;2.33;;
25023;SDS011;13033;50.936;5.334;2023-08-31T12:46:00;5.03;;;2.28;;
25023;SDS011;13033;50.936;5.334;2023-08-31T12:48:26;6.88;;;2.45;;
25023;SDS011;13033;50.936;5.334;2023-08-31T12:50:52;10.13;;;2.50;;
25023;SDS011;13033;50.936;5.334;2023-08-31T12:53:20;7.32;;;2.72;;
25023;SDS011;13033;50.936;5.334;2023-08-31T12:55:47;6.68;;;2.65;;
25023;SDS011;13033;50.936;5.334;2023-08-31T12:58:14;8.10;;;2.80;;
25023;SDS011;13033;50.936;5.334;2023-08-31T13:00:40;6.07;;;2.13;;
25023;SDS011;13033;50.936;5.334;2023-08-31T13:03:08;6.45;;;1.85;;
25023;SDS011;13033;50.936;5.334;2023-08-31T13:05:34;5.05;;;2.10;;
25023;SDS011;13033;50.936;5.334;2023-08-31T13:08:00;8.27;;;2.35;;
25023;SDS011;13033;50.936;5.334;2023-08-31T13:10:25;4.03;;;2.25;;
25023;SDS011;13033;50.936;5.334;2023-08-31T13:12:51;7.55;;;2.40;;
25023;SDS011;13033;50.936;5.334;2023-08-31T13:15:17;8.05;;;2.55;;
25023;SDS011;13033;50.936;5.334;2023-08-31T13:17:42;7.40;;;2.45;;
25023;SDS011;13033;50.936;5.334;2023-08-31T13:20:08;6.22;;;2.35;;
25023;SDS011;13033;50.936;5.334;2023-08-31T13:22:34;6.78;;;2.40;;
25023;SDS011;13033;50.936;5.334;2023-08-31T13:25:00;4.85;;;2.00;;
25023;SDS011;13033;50.936;5.334;2023-08-31T13:27:26;9.35;;;2.20;;
25023;SDS011;13033;50.936;5.334;2023-08-31T13:29:51;6.63;;;2.17;;
25023;SDS011;13033;50.936;5.334;2023-08-31T13:32:17;6.18;;;1.95;;
25023;SDS011;13033;50.936;5.334;2023-08-31T13:34:43;7.00;;;2.42;;
25023;SDS011;13033;50.936;5.334;2023-08-31T13:37:08;7.55;;;2.17;;
25023;SDS011;13033;50.936;5.334;2023-08-31T13:39:34;5.38;;;2.22;;
25023;SDS011;13033;50.936;5.334;2023-08-31T13:42:02;4.38;;;1.80;;
25023;SDS011;13033;50.936;5.334;2023-08-31T13:44:28;8.18;;;2.03;;
25023;SDS011;13033;50.936;5.334;2023-08-31T13:46:54;3.50;;;1.98;;
25023;SDS011;13033;50.936;5.334;2023-08-31T13:49:20;10.05;;;2.67;;
25023;SDS011;13033;50.936;5.334;2023-08-31T13:51:46;5.05;;;1.90;;
25023;SDS011;13033;50.936;5.334;2023-08-31T13:54:11;4.68;;;1.92;;
25023;SDS011;13033;50.936;5.334;2023-08-31T13:56:37;3.85;;;1.60;;
25023;SDS011;13033;50.936;5.334;2023-08-31T13:59:03;5.20;;;1.83;;
25023;SDS011;13033;50.936;5.334;2023-08-31T14:01:29;7.40;;;2.20;;
25023;SDS011;13033;50.936;5.334;2023-08-31T14:03:55;7.30;;;2.22;;
25023;SDS011;13033;50.936;5.334;2023-08-31T14:06:20;5.88;;;1.98;;
25023;SDS011;13033;50.936;5.334;2023-08-31T14:08:46;4.32;;;1.73;;
25023;SDS011;13033;50.936;5.334;2023-08-31T14:11:13;8.38;;;2.10;;
25023;SDS011;13033;50.936;5.334;2023-08-31T14:13:39;4.47;;;1.80;;
25023;SDS011;13033;50.936;5.334;2023-08-31T14:16:06;6.03;;;2.25;;
25023;SDS011;13033;50.936;5.334;2023-08-31T14:18:32;6.00;;;1.83;;
25023;SDS011;13033;50.936;5.334;2023-08-31T14:20:58;6.75;;;2.10;;
25023;SDS011;13033;50.936;5.334;2023-08-31T14:23:25;6.15;;;1.80;;
25023;SDS011;13033;50.936;5.334;2023-08-31T14:25:51;5.97;;;1.95;;
25023;SDS011;13033;50.936;5.334;2023-08-31T14:28:17;4.05;;;2.03;;
25023;SDS011;13033;50.936;5.334;2023-08-31T14:30:43;5.82;;;2.13;;
25023;SDS011;13033;50.936;5.334;2023-08-31T14:33:08;6.03;;;2.17;;
25023;SDS011;13033;50.936;5.334;2023-08-31T14:35:37;4.15;;;1.65;;
25023;SDS011;13033;50.936;5.334;2023-08-31T14:38:04;5.10;;;1.90;;
25023;SDS011;13033;50.936;5.334;2023-08-31T14:40:30;6.28;;;2.03;;
25023;SDS011;13033;50.936;5.334;2023-08-31T14:42:56;4.03;;;2.25;;
25023;SDS011;13033;50.936;5.334;2023-08-31T14:45:21;8.02;;;2.10;;
25023;SDS011;13033;50.936;5.334;2023-08-31T14:47:47;5.53;;;2.10;;
25023;SDS011;13033;50.936;5.334;2023-08-31T14:50:13;5.63;;;2.08;;
25023;SDS011;13033;50.936;5.334;2023-08-31T14:52:38;5.82;;;2.20;;
25023;SDS011;13033;50.936;5.334;2023-08-31T14:55:04;5.78;;;2.10;;
25023;SDS011;13033;50.936;5.334;2023-08-31T14:57:30;6.78;;;2.30;;
25023;SDS011;13033;50.936;5.334;2023-08-31T14:59:56;4.00;;;2.30;;
25023;SDS011;13033;50.936;5.334;2023-08-31T15:02:23;8.10;;;2.55;;
25023;SDS011;13033;50.936;5.334;2023-08-31T15:04:50;8.98;;;2.67;;
25023;SDS011;13033;50.936;5.334;2023-08-31T15:07:16;5.47;;;2.50;;
25023;SDS011;13033;50.936;5.334;2023-08-31T15:09:42;6.10;;;2.30;;